Flight Track Log - Related Links

Times and Time Zones

All times are in EST time to prevent confusion due to time zone crossing. See the AAY805 flight status page for this flight to view local times or setup timezone preferences in your user account.

Time Position Orientation Groundspeed Altitude Reporting Facility
EST Latitude Longitude Course Direction KTS MPH feet Rate Location/Type
Thu 09:08:51 AM 34.8681 -85.1856 161° South 278 320 7,300  Level Atlanta Center
Thu 09:09:51 AM 34.7892 -85.1364 153° Southeast 297 342 10,000 2,050 Climbing Atlanta Center
Thu 09:10:51 AM 34.6997 -85.0822 154° Southeast 327 376 11,400 1,900 Climbing Atlanta Center
Thu 09:11:51 AM 34.5897 -85.0103 152° Southeast 383 441 13,800 2,450 Climbing Atlanta Center
Thu 09:12:00 AM 34.5579 -84.9206 158° South  Level FlightAware Approximate
Thu 09:12:51 AM 34.4817 -84.9461 154° Southeast 420 483 16,300  Level Atlanta Center
Thu 09:13:00 AM 34.4583 -84.8750 161° South  Level FlightAware Approximate
Thu 09:13:51 AM 34.3736 -84.8819 154° Southeast 434 499 18,500  Level Atlanta Center
Thu 09:14:51 AM 34.2594 -84.8131 153° Southeast 444 511 20,400 1,950 Climbing Atlanta Center
Thu 09:15:51 AM 34.1450 -84.7442 154° Southeast 449 517 22,400 1,750 Climbing Atlanta Center
Thu 09:16:51 AM 34.0389 -84.6856 155° Southeast 462 532 23,900 1,750 Climbing Atlanta Center
Thu 09:17:51 AM 33.9203 -84.6094 152° Southeast 467 537 25,900 1,800 Climbing Atlanta Center
Thu 09:18:51 AM 33.8058 -84.5389 153° Southeast 467 537 27,500 1,900 Climbing Atlanta Center
Thu 09:19:51 AM 33.6725 -84.4656 155° Southeast 469 540 29,700 1,700 Climbing Atlanta Center
Thu 09:20:51 AM 33.5556 -84.4353 168° South 439 505 30,900 650 Climbing Atlanta Center
Thu 09:21:51 AM 33.4367 -84.4347 180° South 434 499 31,000 50 Climbing Atlanta Center
Thu 09:22:51 AM 33.3178 -84.4317 179° South 429 494 31,000  Level Atlanta Center
Thu 09:23:51 AM 33.1986 -84.4311 180° South 423 487 31,000  Level Atlanta Center
Thu 09:24:51 AM 33.0797 -84.4256 178° South 423 487 31,000  Level Atlanta Center
Thu 09:25:51 AM 32.9586 -84.4250 180° South 428 493 31,000  Level Atlanta Center
Thu 09:26:51 AM 32.8378 -84.4269 181° South 434 499 31,000  Level Atlanta Center
Thu 09:27:51 AM 32.7311 -84.4192 176° South 434 499 31,000  Level Atlanta Center
Thu 09:28:51 AM 32.6144 -84.4161 179° South 434 499 31,000 350 Level Atlanta Center
Thu 09:29:51 AM 32.4953 -84.4131 179° South 434 499 31,700 1,000 Climbing Atlanta Center
Thu 09:30:51 AM 32.3806 -84.4128 180° South 429 494 33,000 650 Climbing Atlanta Center
Thu 09:31:51 AM 32.2700 -84.4097 179° South 416 479 33,000  Level Atlanta Center
Thu 09:32:51 AM 32.1594 -84.4069 179° South 405 466 33,000  Level Atlanta Center
Thu 09:33:51 AM 32.0444 -84.4064 180° South 405 466 33,000  Level Atlanta Center
Thu 09:37:24 AM 31.6356 -84.3958 179° South 421 484 33,000  Level Jacksonville Center
Thu 09:38:24 AM 31.5208 -84.3939 179° South 416 479 33,000  Level Jacksonville Center
Thu 09:39:24 AM 31.4144 -84.3922 179° South 411 473 33,000  Level Jacksonville Center
Thu 09:40:24 AM 31.2975 -84.3903 179° South 411 473 33,000  Level Jacksonville Center
Thu 09:41:24 AM 31.1847 -84.3861 178° South 411 473 33,000  Level Jacksonville Center
Thu 09:42:24 AM 31.0761 -84.3867 180° South 401 461 33,000  Level Jacksonville Center
Thu 09:43:24 AM 30.9678 -84.3825 178° South 401 461 33,000  Level Jacksonville Center
Thu 09:44:24 AM 30.8550 -84.3833 180° South 401 461 33,000  Level Jacksonville Center
Thu 09:45:24 AM 30.7444 -84.3792 178° South 401 461 33,000  Level Jacksonville Center
Thu 09:46:24 AM 30.6317 -84.3772 179° South 401 461 33,000 -50 Level Jacksonville Center
Thu 09:47:24 AM 30.5086 -84.3489 169° South 406 467 32,900 -50 Descending Jacksonville Center
Thu 09:48:24 AM 30.3947 -84.2725 150° Southeast 430 495 32,900 50 Level Jacksonville Center
Thu 09:49:24 AM 30.2828 -84.1986 150° Southeast 443 510 33,000  Climbing Jacksonville Center
Thu 09:50:24 AM 30.1750 -84.1253 150° Southeast 450 518 32,900  Descending Jacksonville Center
Thu 09:51:24 AM 30.0608 -84.0517 151° Southeast 462 532 33,000 50 Climbing Jacksonville Center
Thu 09:52:24 AM 29.9508 -83.9808 151° Southeast 462 532 33,000  Level Jacksonville Center
Thu 09:53:24 AM 29.8428 -83.9103 150° Southeast 450 518 33,000 -50 Level Jacksonville Center
Thu 09:54:24 AM 29.7328 -83.8397 151° Southeast 450 518 32,900 -200 Descending Jacksonville Center
Thu 09:55:24 AM 29.6225 -83.7694 151° Southeast 455 524 32,600 -1,150 Descending Jacksonville Center
Thu 09:56:24 AM 29.5125 -83.6969 150° Southeast 455 524 30,600 -1,900 Descending Jacksonville Center
Thu 09:57:24 AM 29.3981 -83.6244 151° Southeast 455 524 28,800 -1,900 Descending Jacksonville Center
Thu 09:58:24 AM 29.2856 -83.5544 152° Southeast 455 524 26,800 -1,800 Descending Jacksonville Center
Thu 09:59:24 AM 29.1775 -83.4847 151° Southeast 450 518 25,200 -1,650 Descending Jacksonville Center
Thu 10:00:24 AM 29.0714 -83.4175 151° Southeast 445 512 23,500 -1,750 Descending Jacksonville Center
Thu 10:01:24 AM 28.9631 -83.3483 151° Southeast 445 512 21,700 -1,900 Descending Jacksonville Center
Thu 10:02:24 AM 28.8631 -83.2861 151° Southeast 434 499 19,700 -2,050 Descending Jacksonville Center
Thu 10:03:24 AM 28.7631 -83.2217 151° Southeast 423 487 17,600 -2,000 Descending Jacksonville Center
Thu 10:05:18 AM 28.5833 -83.1167 153° Southeast 384 442 13,900 -1,643 Descending Tampa TRACON
Thu 10:06:12 AM 28.5000 -83.0667 152° Southeast 354 407 13,000 -474 Descending Tampa TRACON
Thu 10:07:12 AM 28.4167 -83.0000 145° Southeast 343 395 13,000 -50 Level Tampa TRACON
Thu 10:08:12 AM 28.3333 -82.9500 152° Southeast 353 406 12,900 -550 Descending Tampa TRACON
Thu 10:09:12 AM 28.2667 -82.8833 139° Southeast 343 395 11,900 -1,200 Descending Tampa TRACON
Thu 10:10:12 AM 28.1833 -82.8333 152° Southeast 307 353 10,500 -1,450 Descending Tampa TRACON
Thu 10:11:12 AM 28.1000 -82.8000 161° South 291 335 9,000 -1,500 Descending Tampa TRACON
Thu 10:12:12 AM 28.0333 -82.8000 180° South 278 320 7,500 -1,636 Descending Tampa TRACON
Thu 10:13:24 AM 27.9333 -82.8000 180° South 267 307 5,400 -1,750 Descending Tampa TRACON
Thu 10:14:12 AM 27.8833 -82.7833 164° South 274 315 4,000 -1,376 Descending Tampa TRACON
Thu 10:15:13 AM 27.8000 -82.7833 180° South 271 312 2,900 -793 Descending Tampa TRACON
Thu 10:16:13 AM 27.7333 -82.7833 180° South 216 249 2,400 -474 Descending Tampa TRACON
Thu 10:17:07 AM 27.7167 -82.7333 111° Southeast 192 221 2,000 -211 Descending Tampa TRACON
Thu 10:18:07 AM 27.7500 -82.7000 42° Northeast 172 198 2,000  Level Tampa TRACON
Thu 10:19:07 AM 27.8000 -82.6833 16° North 161 185 2,000 -450 Level Tampa TRACON
Thu 10:20:07 AM 27.8333 -82.6833 360° North 137 158 1,100 -700 Descending Tampa TRACON
Thu 10:21:07 AM 27.8833 -82.6833 360° North 134 154 600 -500 Descending Tampa TRACON

Login

Don't have an account? Register now (free) for customized features, flight alerts, and more!